Time;durP1;ratioP1;P1;durP2;ratioP2;P2;SDS_P1;SDS_P2;PMS_P1;PMS_P2;Temp;Humidity;BMP_temperature;BMP_pressure;BME280_temperature;BME280_humidity;BME280_pressure;Samples;Min_cycle;Max_cycle;Signal;HPM_P1;HPM_P2
2022/04/02 00:02:06;;;;;;;10.93;3.37;;;6.50;55.20;;;;;;5071091;28;20243;-94
2022/04/02 00:04:33;;;;;;;11.13;3.17;;;6.50;55.10;;;;;;5074089;28;20247;-94
2022/04/02 00:07:02;;;;;;;14.33;3.60;;;6.50;55.20;;;;;;5071076;28;20210;-96
2022/04/02 00:09:29;;;;;;;18.20;4.37;;;6.50;55.20;;;;;;5071765;28;20238;-94
2022/04/02 00:11:57;;;;;;;13.67;3.40;;;6.50;55.20;;;;;;5067526;28;20646;-93
2022/04/02 00:14:25;;;;;;;9.67;2.77;;;6.50;55.20;;;;;;5067204;28;20215;-92
2022/04/02 00:16:53;;;;;;;17.67;4.53;;;6.50;55.30;;;;;;5072052;28;20250;-91
2022/04/02 00:19:29;;;;;;;10.63;2.67;;;6.40;55.30;;;;;;5072882;28;20680;-93
2022/04/02 00:21:57;;;;;;;9.30;2.77;;;6.40;55.40;;;;;;5072178;28;20201;-91
2022/04/02 00:24:24;;;;;;;12.73;3.33;;;6.40;55.40;;;;;;5075167;28;20242;-94
2022/04/02 00:26:52;;;;;;;17.43;4.27;;;6.40;55.50;;;;;;5072328;28;20210;-95
2022/04/02 00:29:22;;;;;;;8.17;2.50;;;6.40;56.10;;;;;;5074661;28;20284;-94
2022/04/02 00:31:49;;;;;;;8.83;2.20;;;6.40;55.50;;;;;;5074760;28;20717;-94
2022/04/02 00:34:17;;;;;;;10.60;2.37;;;6.30;55.50;;;;;;5074040;28;20203;-94
2022/04/02 00:36:48;;;;;;;10.30;2.80;;;6.40;55.60;;;;;;5075034;28;20301;-96
2022/04/02 00:39:17;;;;;;;14.53;3.10;;;6.30;55.50;;;;;;5074120;28;20213;-95
2022/04/02 00:41:44;;;;;;;8.27;2.40;;;6.30;55.70;;;;;;5073907;28;20764;-94
2022/04/02 00:44:14;;;;;;;10.27;2.50;;;6.30;55.80;;;;;;5075299;28;20225;-94
2022/04/02 00:46:42;;;;;;;8.20;2.33;;;6.30;55.90;;;;;;5073746;28;20556;-96
2022/04/02 00:49:11;;;;;;;10.37;2.73;;;6.30;56.00;;;;;;5073606;28;20216;-95
2022/04/02 00:51:45;;;;;;;15.57;3.40;;;6.30;56.20;;;;;;5073105;28;20231;-93
2022/04/02 00:54:17;;;;;;;10.93;2.67;;;6.30;56.30;;;;;;5072984;28;20558;-95
2022/04/02 00:56:45;;;;;;;9.20;2.47;;;6.30;56.30;;;;;;5069450;28;20213;-93
2022/04/02 00:59:13;;;;;;;9.40;3.00;;;6.20;56.30;;;;;;5073657;28;20206;-93
2022/04/02 01:01:45;;;;;;;12.27;3.00;;;6.20;56.40;;;;;;5071851;28;20703;-93
2022/04/02 01:04:14;;;;;;;15.73;3.60;;;6.20;56.40;;;;;;5068765;28;20232;-94
2022/04/02 01:06:44;;;;;;;11.47;3.03;;;6.30;56.50;;;;;;5071150;28;20215;-95
2022/04/02 01:09:11;;;;;;;15.13;3.33;;;6.20;56.60;;;;;;5072379;28;20239;-94
2022/04/02 01:11:42;;;;;;;15.27;3.07;;;6.20;56.70;;;;;;5072181;28;20320;-94
2022/04/02 01:14:10;;;;;;;9.60;2.67;;;6.20;56.80;;;;;;5068942;28;20316;-93
2022/04/02 01:16:37;;;;;;;7.87;2.40;;;6.20;56.80;;;;;;5073559;28;20657;-94
2022/04/02 01:19:06;;;;;;;11.13;3.07;;;6.20;56.80;;;;;;5072505;28;20256;-93
2022/04/02 01:21:34;;;;;;;15.23;3.57;;;6.20;56.90;;;;;;5071441;28;22864;-93
2022/04/02 01:24:06;;;;;;;12.87;3.17;;;6.10;57.00;;;;;;5070342;28;20209;-92
2022/04/02 01:26:33;;;;;;;16.70;3.70;;;6.20;57.10;;;;;;5069831;28;21019;-92
2022/04/02 01:29:01;;;;;;;10.10;2.73;;;6.20;57.10;;;;;;5071347;28;20577;-95
2022/04/02 01:31:29;;;;;;;24.40;5.60;;;6.10;57.10;;;;;;5070419;28;20227;-91
2022/04/02 01:33:57;;;;;;;10.10;2.40;;;6.10;57.20;;;;;;5070789;28;20240;-90
2022/04/02 01:36:24;;;;;;;11.30;3.70;;;6.10;57.20;;;;;;5069184;28;20206;-91
2022/04/02 01:38:52;;;;;;;14.80;3.03;;;6.10;57.30;;;;;;5071585;28;20288;-96
2022/04/02 01:41:21;;;;;;;12.70;2.87;;;6.10;57.30;;;;;;5072567;28;20244;-95
2022/04/02 01:43:49;;;;;;;7.23;2.03;;;6.10;57.30;;;;;;5068547;28;20244;-92
2022/04/02 01:46:18;;;;;;;8.80;2.30;;;6.10;57.30;;;;;;5071397;28;20775;-93
2022/04/02 01:48:46;;;;;;;7.33;2.30;;;6.10;57.50;;;;;;5071406;28;20720;-90
2022/04/02 01:51:13;;;;;;;15.10;3.67;;;6.10;57.40;;;;;;5066961;28;20209;-90
2022/04/02 01:53:46;;;;;;;15.70;3.70;;;6.00;57.50;;;;;;5072414;28;20200;-95
2022/04/02 01:56:14;;;;;;;11.13;2.87;;;6.00;57.50;;;;;;5071259;28;20206;-90
2022/04/02 01:58:43;;;;;;;11.67;3.03;;;6.00;57.50;;;;;;5071335;28;20213;-91
2022/04/02 02:01:12;;;;;;;12.00;3.37;;;6.00;57.50;;;;;;5072424;28;20282;-92
2022/04/02 02:03:39;;;;;;;13.00;3.03;;;6.00;57.50;;;;;;5066223;28;20211;-92
2022/04/02 02:06:07;;;;;;;25.17;5.67;;;6.00;57.50;;;;;;5068656;28;20231;-89
2022/04/02 02:08:35;;;;;;;12.63;3.47;;;6.00;57.70;;;;;;5065895;28;20216;-88
2022/04/02 02:11:02;;;;;;;11.53;2.70;;;6.00;57.70;;;;;;5069407;28;20707;-90
2022/04/02 02:13:31;;;;;;;9.73;2.80;;;5.90;57.70;;;;;;5069618;28;20247;-90
2022/04/02 02:15:59;;;;;;;9.37;2.50;;;6.00;58.00;;;;;;5071071;28;20737;-92
2022/04/02 02:18:26;;;;;;;14.43;3.27;;;5.90;58.10;;;;;;5070249;28;20556;-93
2022/04/02 02:20:54;;;;;;;16.70;4.37;;;5.90;58.30;;;;;;5067349;28;20206;-90
2022/04/02 02:23:24;;;;;;;13.50;3.70;;;5.90;58.70;;;;;;5069197;28;20224;-91
2022/04/02 02:25:51;;;;;;;14.23;3.83;;;5.90;58.90;;;;;;5069526;28;20238;-94
2022/04/02 02:28:18;;;;;;;10.13;3.03;;;6.00;59.20;;;;;;5069143;28;20197;-94
2022/04/02 02:30:46;;;;;;;8.77;2.57;;;5.90;59.50;;;;;;5067587;28;20200;-92
2022/04/02 02:36:00;;;;;;;12.73;3.47;;;6.00;59.80;;;;;;5030705;28;20249;-91
2022/04/02 02:38:27;;;;;;;10.40;2.90;;;6.00;59.70;;;;;;5071129;28;20209;-91
2022/04/02 02:40:55;;;;;;;16.33;4.17;;;6.00;59.70;;;;;;5050700;28;20205;-91
2022/04/02 02:43:26;;;;;;;16.63;4.13;;;6.10;59.80;;;;;;5072371;28;20209;-94
2022/04/02 02:45:53;;;;;;;13.97;3.73;;;6.10;59.80;;;;;;5071482;28;20342;-95
2022/04/02 02:48:22;;;;;;;7.60;2.47;;;6.20;59.90;;;;;;5075763;28;20654;-94
2022/04/02 02:50:50;;;;;;;8.27;2.53;;;6.20;60.00;;;;;;5081315;28;20274;-93
2022/04/02 02:53:19;;;;;;;7.40;2.17;;;6.20;60.00;;;;;;5077292;28;20206;-95
2022/04/02 02:55:46;;;;;;;12.97;3.67;;;6.20;60.20;;;;;;5072491;28;20205;-95
2022/04/02 02:58:14;;;;;;;15.83;4.40;;;6.20;60.30;;;;;;5073259;28;20728;-96
2022/04/02 03:00:46;;;;;;;8.00;2.50;;;6.30;60.50;;;;;;5067848;28;20233;-96
2022/04/02 03:03:13;;;;;;;10.70;3.10;;;6.30;60.70;;;;;;5079247;28;20205;-96
2022/04/02 03:05:43;;;;;;;7.47;2.40;;;6.40;61.10;;;;;;5078431;28;20237;-96
2022/04/02 03:08:10;;;;;;;12.77;3.30;;;6.30;61.50;;;;;;5078981;28;20575;-94
2022/04/02 03:10:37;;;;;;;17.77;5.13;;;6.30;61.80;;;;;;5073164;28;20230;-94
2022/04/02 03:13:07;;;;;;;7.00;2.67;;;6.40;62.70;;;;;;5076661;28;20222;-94
2022/04/02 03:15:35;;;;;;;20.13;5.10;;;6.40;63.20;;;;;;5075888;28;21113;-92
2022/04/02 03:18:10;;;;;;;9.20;3.20;;;6.40;63.80;;;;;;5075019;28;20287;-94
2022/04/02 03:20:38;;;;;;;8.17;2.60;;;6.40;64.20;;;;;;5077979;28;20289;-94
2022/04/02 03:23:09;;;;;;;4.73;2.23;;;6.40;63.80;;;;;;5078049;28;20206;-94
2022/04/02 03:25:37;;;;;;;9.67;3.23;;;6.40;64.40;;;;;;5076016;28;20348;-94
2022/04/02 03:28:07;;;;;;;6.13;2.47;;;6.30;64.30;;;;;;5079418;28;20211;-92
2022/04/02 03:30:38;;;;;;;12.10;3.93;;;6.30;64.70;;;;;;5077695;28;20215;-95
2022/04/02 03:33:05;;;;;;;8.20;3.10;;;6.30;64.80;;;;;;5074082;28;20209;-94
2022/04/02 03:35:33;;;;;;;17.33;4.93;;;6.30;64.90;;;;;;5066867;28;20207;-95
2022/04/02 03:38:00;;;;;;;19.53;5.53;;;6.30;65.10;;;;;;5074241;28;20233;-94
2022/04/02 03:40:29;;;;;;;9.83;3.67;;;6.30;65.10;;;;;;5074378;28;20719;-93
2022/04/02 03:42:57;;;;;;;14.67;4.57;;;6.30;65.40;;;;;;5073521;28;20218;-94
2022/04/02 03:45:26;;;;;;;9.93;3.10;;;6.30;66.10;;;;;;5075185;28;20677;-91
2022/04/02 03:47:56;;;;;;;14.77;4.63;;;6.30;65.50;;;;;;5073506;28;20234;-92
2022/04/02 03:50:24;;;;;;;11.93;3.27;;;6.30;65.20;;;;;;5074967;28;20288;-95
2022/04/02 03:52:53;;;;;;;15.87;4.47;;;6.30;65.20;;;;;;5072751;28;20665;-93
2022/04/02 03:55:21;;;;;;;12.23;3.47;;;6.20;65.20;;;;;;5074647;28;20201;-94
2022/04/02 03:57:50;;;;;;;10.03;3.40;;;6.20;65.20;;;;;;5075727;28;20185;-94
2022/04/02 04:00:19;;;;;;;10.67;3.37;;;6.30;65.50;;;;;;5075449;28;20567;-94
2022/04/02 04:02:48;;;;;;;12.20;3.57;;;6.30;65.40;;;;;;5075528;28;20866;-92
2022/04/02 04:05:15;;;;;;;8.17;2.73;;;6.30;65.40;;;;;;5075514;28;20207;-94
2022/04/02 04:07:43;;;;;;;12.40;2.97;;;6.20;65.10;;;;;;5077733;28;20258;-94
2022/04/02 04:10:12;;;;;;;17.97;4.40;;;6.30;66.00;;;;;;5075727;28;20231;-94
2022/04/02 04:12:42;;;;;;;12.30;3.67;;;6.20;64.90;;;;;;5074340;28;20201;-93
2022/04/02 04:15:11;;;;;;;16.57;4.07;;;6.20;64.70;;;;;;5073421;28;20209;-94
2022/04/02 04:17:41;;;;;;;9.53;2.90;;;6.20;64.50;;;;;;5075340;28;20225;-94
2022/04/02 04:20:11;;;;;;;6.57;2.67;;;6.20;64.20;;;;;;5075150;28;20280;-93
2022/04/02 04:22:39;;;;;;;8.83;3.07;;;6.20;64.20;;;;;;5075044;28;20211;-93
2022/04/02 04:25:10;;;;;;;11.53;3.63;;;6.20;64.80;;;;;;5074669;28;20250;-94
2022/04/02 04:27:37;;;;;;;8.93;2.67;;;6.10;63.80;;;;;;5077076;28;20567;-93
2022/04/02 04:30:06;;;;;;;14.53;3.90;;;6.20;63.60;;;;;;5075471;28;20206;-94
2022/04/02 04:32:35;;;;;;;14.20;4.30;;;6.10;63.50;;;;;;5073098;28;20202;-92
2022/04/02 04:35:07;;;;;;;11.40;3.50;;;6.10;63.50;;;;;;5068437;28;20203;-93
2022/04/02 04:37:35;;;;;;;10.67;3.27;;;6.10;63.50;;;;;;5060442;28;20203;-92
2022/04/02 04:40:06;;;;;;;10.57;3.87;;;6.10;63.50;;;;;;5073243;28;20226;-93
2022/04/02 04:42:34;;;;;;;10.27;3.57;;;6.10;63.50;;;;;;5074419;28;20580;-92
2022/04/02 04:45:02;;;;;;;12.87;3.80;;;6.10;63.90;;;;;;5063434;28;20301;-92
2022/04/02 04:47:30;;;;;;;10.57;3.83;;;6.10;64.10;;;;;;5074075;28;20214;-93
2022/04/02 04:50:03;;;;;;;9.63;2.97;;;6.10;64.10;;;;;;5064992;28;20223;-94
2022/04/02 04:52:31;;;;;;;10.17;3.30;;;6.10;64.10;;;;;;5065018;28;20202;-92
2022/04/02 04:54:58;;;;;;;6.77;2.77;;;6.00;63.70;;;;;;5073140;28;20212;-92
2022/04/02 04:57:25;;;;;;;8.33;2.87;;;6.00;63.60;;;;;;5074210;28;20202;-92
2022/04/02 04:59:52;;;;;;;11.10;4.00;;;6.00;63.40;;;;;;5071537;28;20304;-91
2022/04/02 05:02:20;;;;;;;12.10;3.67;;;6.00;63.40;;;;;;5069906;28;20205;-92
2022/04/02 05:04:47;;;;;;;16.80;4.10;;;5.90;63.30;;;;;;5072103;28;20210;-90
2022/04/02 05:07:17;;;;;;;12.70;3.83;;;5.90;63.30;;;;;;5070870;28;20265;-92
2022/04/02 05:09:45;;;;;;;17.43;4.93;;;5.90;63.50;;;;;;5066498;28;20932;-92
2022/04/02 05:12:14;;;;;;;17.90;5.27;;;5.90;63.50;;;;;;5072535;28;20201;-91
2022/04/02 05:14:41;;;;;;;14.50;4.10;;;5.80;63.20;;;;;;5072048;28;20225;-92
2022/04/02 05:17:08;;;;;;;12.60;3.83;;;5.80;63.20;;;;;;5073207;28;20227;-92
2022/04/02 05:19:36;;;;;;;9.57;3.23;;;5.80;63.50;;;;;;5062556;28;20206;-91
2022/04/02 05:22:04;;;;;;;13.03;3.87;;;5.80;63.30;;;;;;5072184;28;20258;-92
2022/04/02 05:24:32;;;;;;;8.50;3.10;;;5.80;63.50;;;;;;5072447;28;20208;-92
2022/04/02 05:26:59;;;;;;;13.63;4.13;;;5.70;63.60;;;;;;5071484;28;20654;-93
2022/04/02 05:29:28;;;;;;;7.87;2.93;;;5.70;63.60;;;;;;5072305;28;20253;-91
2022/04/02 05:31:59;;;;;;;12.77;3.63;;;5.70;63.80;;;;;;5071597;28;20214;-91
2022/04/02 05:34:27;;;;;;;13.37;4.20;;;5.70;64.20;;;;;;5069769;28;20305;-92
2022/04/02 05:36:54;;;;;;;13.73;4.50;;;5.70;64.30;;;;;;5055274;28;20233;-92
2022/04/02 05:39:21;;;;;;;18.43;5.23;;;5.70;64.40;;;;;;5058405;28;20204;-92
2022/04/02 05:41:57;;;;;;;11.67;3.73;;;5.60;64.40;;;;;;5070865;28;20198;-92
2022/04/02 05:44:27;;;;;;;8.17;3.17;;;5.70;64.80;;;;;;5070767;28;20748;-92
2022/04/02 05:46:54;;;;;;;12.70;3.77;;;5.60;64.50;;;;;;5073575;28;20222;-92
2022/04/02 05:49:21;;;;;;;15.40;4.60;;;5.70;64.60;;;;;;5067707;28;20281;-92
2022/04/02 05:51:49;;;;;;;15.40;4.03;;;5.70;64.70;;;;;;5070478;28;20196;-92
2022/04/02 05:54:16;;;;;;;14.87;4.47;;;5.70;64.60;;;;;;5068370;28;20284;-93
2022/04/02 05:56:48;;;;;;;12.93;3.73;;;5.70;64.60;;;;;;5059386;28;20269;-92
2022/04/02 05:59:17;;;;;;;11.00;3.50;;;5.70;64.70;;;;;;5071876;28;20209;-91
2022/04/02 06:01:44;;;;;;;11.40;3.63;;;5.80;64.50;;;;;;5079521;28;20578;-92
2022/04/02 06:04:14;;;;;;;9.43;3.07;;;5.80;64.30;;;;;;5071557;28;20296;-91
2022/04/02 06:06:43;;;;;;;10.23;3.40;;;5.80;64.10;;;;;;5068883;28;20213;-90
2022/04/02 06:09:11;;;;;;;16.33;4.90;;;5.80;63.90;;;;;;5069628;28;20280;-94
2022/04/02 06:11:40;;;;;;;11.13;3.37;;;5.90;63.90;;;;;;5064729;28;20219;-91
2022/04/02 06:14:10;;;;;;;20.60;5.07;;;5.90;63.70;;;;;;5049804;28;20619;-93
2022/04/02 06:16:38;;;;;;;9.80;3.27;;;5.90;63.30;;;;;;5054619;28;20216;-91
2022/04/02 06:19:07;;;;;;;10.93;3.57;;;5.90;63.20;;;;;;5069816;28;20207;-92
2022/04/02 06:21:34;;;;;;;17.80;5.00;;;5.90;63.20;;;;;;5068271;28;20292;-91
2022/04/02 06:24:05;;;;;;;9.13;3.37;;;5.90;63.20;;;;;;5070027;28;20197;-92
2022/04/02 06:26:34;;;;;;;20.57;5.17;;;6.00;63.30;;;;;;5068729;28;20253;-92
2022/04/02 06:29:01;;;;;;;8.83;2.93;;;6.00;63.30;;;;;;5070206;28;20209;-92
2022/04/02 06:31:29;;;;;;;8.90;3.03;;;6.00;63.20;;;;;;5065165;28;20209;-92
2022/04/02 06:34:01;;;;;;;10.10;3.33;;;6.00;63.10;;;;;;5066450;28;20654;-92
2022/04/02 06:36:28;;;;;;;13.70;4.27;;;6.10;63.00;;;;;;5068744;28;20212;-91
2022/04/02 06:38:55;;;;;;;10.10;3.33;;;6.10;63.00;;;;;;5068335;28;20253;-92
2022/04/02 06:41:22;;;;;;;18.10;4.77;;;6.10;62.90;;;;;;5067413;28;20202;-91
2022/04/02 06:43:49;;;;;;;13.50;4.57;;;6.20;62.90;;;;;;5066210;28;20203;-90
2022/04/02 06:46:17;;;;;;;14.27;3.73;;;6.20;62.80;;;;;;5067394;28;20231;-92
2022/04/02 06:48:44;;;;;;;23.80;6.00;;;6.30;63.00;;;;;;5063820;28;20611;-91
2022/04/02 06:51:17;;;;;;;16.47;4.27;;;6.30;62.90;;;;;;5050636;28;20205;-91
2022/04/02 06:54:09;;;;;;;14.20;4.23;;;6.30;62.60;;;;;;5060065;28;20289;-91
2022/04/02 06:56:37;;;;;;;13.87;4.00;;;6.40;62.20;;;;;;5038407;28;20550;-91
2022/04/02 06:59:05;;;;;;;28.40;7.97;;;6.50;62.20;;;;;;5074262;28;20296;-91
2022/04/02 07:01:32;;;;;;;16.13;5.33;;;6.50;62.10;;;;;;5062654;28;20210;-91
2022/04/02 07:04:00;;;;;;;17.07;5.10;;;6.60;62.20;;;;;;5065994;28;20214;-92
2022/04/02 07:06:29;;;;;;;18.10;4.83;;;6.70;62.20;;;;;;5069742;28;20226;-91
2022/04/02 07:08:56;;;;;;;22.83;5.47;;;6.70;61.90;;;;;;5068506;28;20207;-91
2022/04/02 07:11:23;;;;;;;26.53;6.67;;;6.80;61.90;;;;;;5067078;28;20632;-91
2022/04/02 07:13:50;;;;;;;13.83;4.00;;;6.90;61.70;;;;;;5068111;28;20723;-91
2022/04/02 07:16:19;;;;;;;21.20;5.80;;;7.00;61.70;;;;;;5065573;28;20229;-91
2022/04/02 07:18:49;;;;;;;19.80;5.40;;;7.00;61.60;;;;;;5063739;28;20235;-91
2022/04/02 07:21:20;;;;;;;7.13;2.63;;;7.10;61.40;;;;;;5067132;28;20217;-90
2022/04/02 07:23:49;;;;;;;21.17;5.93;;;7.20;61.40;;;;;;5067730;28;20203;-91
2022/04/02 07:26:20;;;;;;;14.73;4.37;;;7.20;61.40;;;;;;5065798;28;20945;-92
2022/04/02 07:28:48;;;;;;;18.53;4.97;;;7.30;61.70;;;;;;5068660;28;20192;-93
2022/04/02 07:31:15;;;;;;;9.17;3.47;;;7.30;61.10;;;;;;5071596;28;20227;-93
2022/04/02 07:33:42;;;;;;;13.67;4.23;;;7.40;61.20;;;;;;5072690;28;20265;-92
2022/04/02 07:36:20;;;;;;;11.57;4.27;;;7.40;61.20;;;;;;5072859;28;20191;-92
2022/04/02 07:38:56;;;;;;;16.57;5.23;;;7.40;61.10;;;;;;5065824;28;20207;-92
2022/04/02 07:41:27;;;;;;;13.40;4.07;;;7.50;61.40;;;;;;5071475;28;20222;-90
2022/04/02 07:43:59;;;;;;;15.80;4.30;;;7.50;61.20;;;;;;5069195;28;20659;-91
2022/04/02 07:46:29;;;;;;;19.93;5.10;;;7.60;61.50;;;;;;5066414;28;20224;-91
2022/04/02 07:48:58;;;;;;;11.03;3.93;;;7.60;61.50;;;;;;5071197;28;20258;-90
2022/04/02 07:51:28;;;;;;;14.40;4.83;;;7.70;61.40;;;;;;5072631;28;20256;-91
2022/04/02 07:54:08;;;;;;;12.23;4.10;;;7.70;61.40;;;;;;5071423;28;20207;-91
2022/04/02 07:56:40;;;;;;;9.30;3.63;;;7.80;61.20;;;;;;5064448;28;20624;-92
2022/04/02 07:59:11;;;;;;;11.60;4.13;;;8.00;60.90;;;;;;5073378;28;20203;-93
2022/04/02 08:01:40;;;;;;;9.43;3.30;;;8.00;60.60;;;;;;5071670;28;20200;-93
2022/04/02 08:04:17;;;;;;;9.03;3.43;;;8.10;60.20;;;;;;5073180;28;20204;-93
2022/04/02 08:06:49;;;;;;;9.23;3.63;;;8.20;60.00;;;;;;5072221;28;20237;-91
2022/04/02 08:09:22;;;;;;;7.33;3.33;;;8.30;60.10;;;;;;5072711;28;20993;-94
2022/04/02 08:11:50;;;;;;;9.33;3.53;;;8.40;59.70;;;;;;5070686;28;20211;-91
2022/04/02 08:14:23;;;;;;;16.07;5.03;;;8.50;59.50;;;;;;5070464;28;20200;-90
2022/04/02 08:16:51;;;;;;;16.10;4.93;;;8.60;59.10;;;;;;5072107;28;20208;-90
2022/04/02 08:19:23;;;;;;;14.17;4.80;;;8.70;58.90;;;;;;5072393;28;20196;-90
2022/04/02 08:21:51;;;;;;;16.43;5.47;;;8.70;58.30;;;;;;5071225;28;20209;-91
2022/04/02 08:24:20;;;;;;;9.17;3.70;;;8.80;58.00;;;;;;5069886;28;20222;-91
2022/04/02 08:27:00;;;;;;;13.70;4.50;;;8.80;58.00;;;;;;5071124;28;20219;-91
2022/04/02 08:29:38;;;;;;;10.20;3.97;;;8.90;58.00;;;;;;5071656;28;20207;-90
2022/04/02 08:32:18;;;;;;;12.90;3.97;;;9.00;58.00;;;;;;5070961;28;20582;-89
2022/04/02 08:35:04;;;;;;;8.43;3.53;;;9.10;58.00;;;;;;5072871;28;20200;-91
2022/04/02 08:37:44;;;;;;;16.53;5.30;;;9.20;57.70;;;;;;5069606;28;20222;-91
2022/04/02 08:40:41;;;;;;;8.10;3.23;;;9.30;57.80;;;;;;5069986;28;20272;-91
2022/04/02 08:43:40;;;;;;;8.60;3.63;;;9.40;57.70;;;;;;5069217;28;20221;-93
2022/04/02 08:46:12;;;;;;;10.97;3.77;;;9.50;57.50;;;;;;5027247;28;20200;-91
2022/04/02 08:48:55;;;;;;;9.33;3.73;;;9.60;57.20;;;;;;5064664;28;20318;-91
2022/04/02 08:51:41;;;;;;;12.00;4.10;;;9.70;56.90;;;;;;5054292;28;20299;-91
2022/04/02 08:54:24;;;;;;;11.40;4.07;;;9.70;56.90;;;;;;5067088;28;20207;-90
2022/04/02 08:56:58;;;;;;;11.53;4.00;;;9.90;56.20;;;;;;5067656;28;20564;-90
2022/04/02 08:59:37;;;;;;;10.57;3.57;;;10.00;55.40;;;;;;5060173;28;20211;-91
2022/04/02 09:02:48;;;;;;;9.40;3.33;;;10.20;54.20;;;;;;5069499;28;20260;-90
2022/04/02 09:05:23;;;;;;;17.50;5.10;;;10.30;54.00;;;;;;5073352;28;20208;-91
2022/04/02 09:08:32;;;;;;;8.37;3.07;;;10.50;52.40;;;;;;5074010;28;20236;-91
2022/04/02 09:11:24;;;;;;;11.13;4.17;;;10.80;52.90;;;;;;5045261;28;20279;-90
2022/04/02 09:14:36;;;;;;;13.73;4.97;;;11.00;52.80;;;;;;5068669;28;20212;-89
2022/04/02 09:17:28;;;;;;;11.97;4.00;;;11.30;53.30;;;;;;5023226;28;20203;-91
2022/04/02 09:20:09;;;;;;;7.07;2.77;;;11.50;51.80;;;;;;5050374;28;20191;-89
2022/04/02 09:22:50;;;;;;;12.27;4.40;;;11.70;51.90;;;;;;5053193;28;20313;-91
2022/04/02 09:25:59;;;;;;;12.43;4.43;;;11.90;52.30;;;;;;5068933;28;20285;-90
2022/04/02 09:28:43;;;;;;;10.80;3.47;;;12.20;50.80;;;;;;5036455;28;20317;-90
2022/04/02 09:31:43;;;;;;;8.43;3.57;;;12.30;50.20;;;;;;5069141;28;20299;-89
2022/04/02 09:34:50;;;;;;;8.00;3.10;;;12.40;48.90;;;;;;5072835;28;20619;-90
2022/04/02 09:37:45;;;;;;;7.73;3.37;;;12.40;49.00;;;;;;5035780;28;20670;-89
2022/04/02 09:40:12;;;;;;;9.63;3.37;;;12.40;48.90;;;;;;5068527;28;20749;-90
2022/04/02 09:42:41;;;;;;;8.93;3.63;;;12.30;49.00;;;;;;5070365;28;20309;-92
2022/04/02 09:45:10;;;;;;;18.53;5.47;;;12.30;48.80;;;;;;5065358;28;20255;-89
2022/04/02 09:48:06;;;;;;;9.90;3.57;;;12.10;48.00;;;;;;5061642;28;20227;-90
2022/04/02 09:50:33;;;;;;;9.00;3.40;;;12.00;46.30;;;;;;5062293;28;20214;-89
2022/04/02 09:53:14;;;;;;;8.10;3.37;;;11.80;46.80;;;;;;5055228;28;20201;-90
2022/04/02 09:55:45;;;;;;;12.57;4.17;;;11.70;46.00;;;;;;5067864;28;20401;-91
2022/04/02 09:58:53;;;;;;;8.40;3.43;;;11.50;46.90;;;;;;5063611;28;20292;-90
2022/04/02 10:01:28;;;;;;;10.60;3.67;;;11.30;46.50;;;;;;5065533;28;20581;-89
2022/04/02 10:04:00;;;;;;;7.93;3.23;;;11.10;47.00;;;;;;5058250;28;20663;-91
2022/04/02 10:06:31;;;;;;;8.50;3.30;;;11.00;47.40;;;;;;5069015;28;20207;-90
2022/04/02 10:09:05;;;;;;;12.27;4.10;;;10.90;47.80;;;;;;5080208;28;20313;-89
2022/04/02 10:11:35;;;;;;;10.73;4.20;;;10.80;48.20;;;;;;5067946;28;20647;-89
2022/04/02 10:14:04;;;;;;;13.77;4.57;;;10.70;49.10;;;;;;5068369;28;20203;-89
2022/04/02 10:16:32;;;;;;;13.70;4.63;;;10.70;49.60;;;;;;5069075;28;20278;-90
2022/04/02 10:19:01;;;;;;;8.20;3.27;;;10.80;50.10;;;;;;5069091;28;20275;-91
2022/04/02 10:21:29;;;;;;;12.70;4.37;;;10.80;50.00;;;;;;5065820;28;20282;-91
2022/04/02 10:24:17;;;;;;;20.50;5.93;;;10.90;48.90;;;;;;5061161;28;20993;-88
2022/04/02 10:26:50;;;;;;;14.03;4.63;;;10.90;48.00;;;;;;5058877;28;20608;-88
2022/04/02 10:29:32;;;;;;;8.70;3.43;;;11.00;48.30;;;;;;5065483;28;20261;-88
2022/04/02 10:32:06;;;;;;;10.73;3.43;;;11.00;48.00;;;;;;5063676;28;20208;-91
2022/04/02 10:34:41;;;;;;;13.37;4.70;;;11.00;47.70;;;;;;5062391;28;20677;-91
2022/04/02 10:37:13;;;;;;;14.57;4.60;;;11.10;47.70;;;;;;5054712;28;20785;-89
2022/04/02 10:39:51;;;;;;;15.53;4.87;;;11.10;47.70;;;;;;5057507;28;20193;-89
2022/04/02 10:42:19;;;;;;;14.97;4.80;;;11.20;46.70;;;;;;5054377;28;20202;-89
2022/04/02 10:44:48;;;;;;;16.00;4.97;;;11.30;47.60;;;;;;5059553;28;20211;-89
2022/04/02 10:47:18;;;;;;;15.57;5.03;;;11.40;47.70;;;;;;5056229;28;20218;-90
2022/04/02 10:49:49;;;;;;;22.27;6.80;;;11.50;47.50;;;;;;5054744;28;20510;-90
2022/04/02 10:52:17;;;;;;;10.57;3.83;;;11.60;47.40;;;;;;5054390;28;20218;-89
2022/04/02 10:54:50;;;;;;;10.13;3.93;;;11.70;47.90;;;;;;5057550;28;20823;-90
2022/04/02 10:57:18;;;;;;;16.47;5.23;;;11.80;47.50;;;;;;5038200;28;20217;-91
2022/04/02 10:59:48;;;;;;;9.87;3.67;;;11.90;46.80;;;;;;5064929;28;20210;-89
2022/04/02 11:02:22;;;;;;;14.67;3.43;;;11.90;47.30;;;;;;5066418;28;20207;-89
2022/04/02 11:04:59;;;;;;;11.87;4.10;;;12.00;46.20;;;;;;5053503;28;20198;-92
2022/04/02 11:07:28;;;;;;;16.43;5.30;;;12.00;46.20;;;;;;5062918;28;20893;-90
2022/04/02 11:09:59;;;;;;;13.30;4.67;;;12.00;46.90;;;;;;5062135;28;20234;-90
2022/04/02 11:12:30;;;;;;;13.97;4.70;;;12.00;46.90;;;;;;5060584;28;20820;-88
2022/04/02 11:15:09;;;;;;;24.50;7.23;;;12.10;46.50;;;;;;5054138;28;20211;-89
2022/04/02 11:17:37;;;;;;;9.53;3.40;;;12.00;46.20;;;;;;5064506;28;20214;-89
2022/04/02 11:20:11;;;;;;;16.47;5.43;;;12.00;46.40;;;;;;5065893;28;20227;-89
2022/04/02 11:23:05;;;;;;;17.13;5.23;;;12.10;46.00;;;;;;5061980;28;20300;-90
2022/04/02 11:25:39;;;;;;;16.30;5.30;;;12.10;45.70;;;;;;5042959;28;20230;-90
2022/04/02 11:28:12;;;;;;;6.40;2.83;;;12.20;46.60;;;;;;5064323;28;20683;-90
2022/04/02 11:30:41;;;;;;;15.60;4.40;;;12.20;45.80;;;;;;5062355;28;20204;-90
2022/04/02 11:33:10;;;;;;;17.00;5.17;;;12.20;45.40;;;;;;5062265;28;20228;-89
2022/04/02 11:35:41;;;;;;;12.03;3.30;;;12.20;44.90;;;;;;5065785;28;20211;-89
2022/04/02 11:38:38;;;;;;;9.00;3.37;;;12.30;45.60;;;;;;5061384;28;20191;-93
2022/04/02 11:41:20;;;;;;;17.47;5.27;;;12.20;44.70;;;;;;5030677;28;20247;-91
2022/04/02 11:43:49;;;;;;;13.17;4.77;;;12.10;43.40;;;;;;5065770;28;20256;-90
2022/04/02 11:46:17;;;;;;;15.20;4.63;;;12.10;45.00;;;;;;5062373;28;20214;-90
2022/04/02 11:48:56;;;;;;;13.07;4.57;;;12.00;44.70;;;;;;5061740;28;20331;-91
2022/04/02 11:51:27;;;;;;;13.93;4.27;;;11.90;44.40;;;;;;5058332;28;20207;-91
2022/04/02 11:54:03;;;;;;;14.23;4.87;;;11.90;44.70;;;;;;5050517;28;20205;-91
2022/04/02 11:56:33;;;;;;;19.17;4.93;;;11.80;44.40;;;;;;5068049;28;20205;-90
2022/04/02 11:59:02;;;;;;;17.47;5.27;;;11.80;44.20;;;;;;5049730;28;20198;-89
2022/04/02 12:01:44;;;;;;;13.47;4.90;;;11.80;44.40;;;;;;5060938;28;20209;-90
2022/04/02 12:04:14;;;;;;;8.00;3.03;;;11.70;43.20;;;;;;5054509;28;20196;-90
2022/04/02 12:06:45;;;;;;;14.13;4.77;;;11.70;45.10;;;;;;5055706;28;20276;-90
2022/04/02 12:09:14;;;;;;;16.33;5.00;;;11.60;45.10;;;;;;5057282;28;20233;-92
2022/04/02 12:11:48;;;;;;;13.73;4.30;;;11.60;45.20;;;;;;5061033;28;20213;-90
2022/04/02 12:14:28;;;;;;;14.67;5.03;;;11.50;45.20;;;;;;5065800;28;20207;-90
2022/04/02 12:17:02;;;;;;;19.47;6.33;;;11.50;45.70;;;;;;5067224;28;20212;-89
2022/04/02 12:19:38;;;;;;;10.77;3.43;;;11.40;46.00;;;;;;5068718;28;20255;-89
2022/04/02 12:22:20;;;;;;;11.33;4.17;;;11.30;45.90;;;;;;5070137;28;20228;-91
2022/04/02 12:24:50;;;;;;;14.53;4.80;;;11.30;45.90;;;;;;5068562;28;20626;-89
2022/04/02 12:27:20;;;;;;;9.77;3.83;;;11.30;46.10;;;;;;5058054;28;20706;-89
2022/04/02 12:29:49;;;;;;;10.37;3.33;;;11.30;45.70;;;;;;5072655;28;20280;-90
2022/04/02 12:32:28;;;;;;;11.60;4.17;;;11.30;46.00;;;;;;5070654;28;20237;-90
2022/04/02 12:34:58;;;;;;;10.70;4.13;;;11.20;46.20;;;;;;5072144;28;20617;-90
2022/04/02 12:37:30;;;;;;;9.07;3.30;;;11.30;46.40;;;;;;5079244;28;20203;-90
2022/04/02 12:39:59;;;;;;;12.60;3.83;;;11.30;47.10;;;;;;5070827;28;20436;-90
2022/04/02 12:42:45;;;;;;;12.93;4.60;;;11.30;47.40;;;;;;5070585;28;20239;-90
2022/04/02 12:45:16;;;;;;;24.13;6.87;;;11.50;47.00;;;;;;5067893;28;20258;-88
2022/04/02 12:47:57;;;;;;;10.57;3.53;;;11.60;46.20;;;;;;5069499;28;20206;-91
2022/04/02 12:50:24;;;;;;;13.77;4.63;;;11.80;46.80;;;;;;5069477;28;20818;-92
2022/04/02 12:52:52;;;;;;;8.27;3.03;;;11.90;47.30;;;;;;5071332;28;21032;-91
2022/04/02 12:55:21;;;;;;;10.13;3.83;;;12.00;46.70;;;;;;5071016;28;20840;-88
2022/04/02 12:58:02;;;;;;;9.40;2.87;;;12.10;46.90;;;;;;5070923;28;20192;-90
2022/04/02 13:00:30;;;;;;;9.10;3.13;;;12.30;47.20;;;;;;5070305;28;20238;-90
2022/04/02 13:03:00;;;;;;;10.50;4.10;;;12.50;47.40;;;;;;5073298;28;20294;-89
2022/04/02 13:05:44;;;;;;;7.67;3.30;;;12.60;46.50;;;;;;5070151;28;20314;-91
2022/04/02 13:08:26;;;;;;;10.83;3.70;;;12.80;46.70;;;;;;5070534;28;20687;-89
2022/04/02 13:10:55;;;;;;;9.70;3.83;;;12.90;46.30;;;;;;5070628;28;20604;-90
2022/04/02 13:13:45;;;;;;;11.20;4.20;;;13.00;45.90;;;;;;5053477;28;20203;-89